Time;durP1;ratioP1;P1;durP2;ratioP2;P2;SDS_P1;SDS_P2;PMS_P1;PMS_P2;Temp;Humidity;BMP_temperature;BMP_pressure;BME280_temperature;BME280_humidity;BME280_pressure;Samples;Min_cycle;Max_cycle;Signal;HPM_P1;HPM_P2
2022/11/17 00:01:08;;;;;;;15.98;6.60;;;;;;;9.73;100.00;98590.63;5017791;28;20128;-79
2022/11/17 00:03:34;;;;;;;;;;;;;;;9.77;100.00;98585.66;5019117;28;20551;-78
2022/11/17 00:06:03;;;;;;;13.45;5.53;;;;;;;9.78;100.00;98575.59;5017327;28;19913;-79
2022/11/17 00:08:29;;;;;;;11.50;4.50;;;;;;;9.81;100.00;98558.88;4996859;28;20053;-79
2022/11/17 00:11:02;;;;;;;13.90;5.20;;;;;;;9.80;100.00;98554.41;4989412;28;20391;-79
2022/11/17 00:16:16;;;;;;;9.48;3.75;;;;;;;9.87;100.00;98522.63;4996721;28;20045;-79
2022/11/17 00:21:27;;;;;;;17.42;4.90;;;;;;;9.70;100.00;98525.38;4991642;28;20121;-79
2022/11/17 00:23:56;;;;;;;15.82;5.93;;;;;;;9.75;100.00;98525.72;4977551;28;20042;-79
2022/11/17 00:26:24;;;;;;;16.52;4.85;;;;;;;9.78;100.00;98537.34;4978079;28;20034;-78
2022/11/17 00:28:54;;;;;;;15.52;6.07;;;;;;;9.81;100.00;98526.06;4994660;28;21665;-78
2022/11/17 00:34:17;;;;;;;13.63;4.47;;;;;;;9.84;100.00;98512.03;4941785;28;20052;-78
2022/11/17 00:36:47;;;;;;;10.18;4.72;;;;;;;9.85;100.00;98509.13;4994290;28;20090;-77
2022/11/17 00:39:14;;;;;;;12.48;4.50;;;;;;;9.84;100.00;98512.03;4994950;28;20026;-77
2022/11/17 00:41:39;;;;;;;9.07;3.97;;;;;;;9.80;100.00;98502.50;4973089;28;20081;-79
2022/11/17 00:44:05;;;;;;;6.90;3.45;;;;;;;9.80;100.00;98503.34;4988770;28;20380;-78
2022/11/17 00:46:32;;;;;;;9.82;3.38;;;;;;;9.82;100.00;98487.63;4995818;28;20038;-78
2022/11/17 00:48:57;;;;;;;10.75;3.33;;;;;;;9.77;100.00;98478.25;4989465;28;20026;-78
2022/11/17 00:51:24;;;;;;;7.53;2.55;;;;;;;9.82;100.00;98482.19;4961694;28;20045;-78
2022/11/17 00:53:50;;;;;;;10.75;3.05;;;;;;;9.79;100.00;98478.91;4988973;28;20045;-78
2022/11/17 00:56:15;;;;;;;13.77;3.50;;;;;;;9.81;100.00;98460.47;4977626;28;20038;-78
2022/11/17 00:58:41;;;;;;;9.57;3.72;;;;;;;9.89;100.00;98464.03;5005701;28;20124;-78
2022/11/17 01:01:06;;;;;;;12.45;4.35;;;;;;;9.84;100.00;98451.91;4989662;28;20394;-77
2022/11/17 01:03:34;;;;;;;6.70;2.92;;;;;;;9.79;100.00;98468.84;4988697;28;20039;-78
2022/11/17 01:06:08;;;;;;;8.57;3.33;;;;;;;9.83;100.00;98458.41;4972246;28;20457;-78
2022/11/17 01:08:33;;;;;;;10.25;3.05;;;;;;;9.76;100.00;98452.81;4998341;28;20070;-79
2022/11/17 01:11:10;;;;;;;8.32;3.60;;;;;;;9.79;100.00;98457.06;5015913;28;20618;-78
2022/11/17 01:13:37;;;;;;;6.38;2.88;;;;;;;9.81;100.00;98427.69;5000419;28;20038;-80
2022/11/17 01:16:08;;;;;;;5.03;2.40;;;;;;;9.83;100.00;98452.94;5000842;28;20046;-78
2022/11/17 01:18:34;;;;;;;9.68;2.90;;;;;;;9.84;100.00;98465.56;5000141;28;20392;-79
2022/11/17 01:21:22;;;;;;;6.55;3.20;;;;;;;9.85;100.00;98457.19;4999602;28;20035;-78
2022/11/17 01:23:50;;;;;;;10.18;2.90;;;;;;;9.78;100.00;98449.91;4987927;28;20402;-78
2022/11/17 01:26:18;;;;;;;11.23;3.40;;;;;;;9.82;100.00;98456.69;5001915;28;20080;-78
2022/11/17 01:28:44;;;;;;;11.00;2.95;;;;;;;9.80;100.00;98447.84;4990582;28;20109;-78
2022/11/17 01:31:12;;;;;;;8.82;2.88;;;;;;;9.84;100.00;98451.91;4975677;28;20541;-78
2022/11/17 01:33:38;;;;;;;9.82;3.08;;;;;;;9.86;100.00;98419.81;4988077;28;20418;-78
2022/11/17 01:36:06;;;;;;;5.45;2.42;;;;;;;9.83;100.00;98404.59;5006339;28;20141;-79
2022/11/17 01:38:32;;;;;;;3.90;2.13;;;;;;;9.90;100.00;98391.94;4993935;28;20035;-79
2022/11/17 01:41:03;;;;;;;9.30;2.50;;;;;;;9.92;100.00;98397.25;5008784;28;20044;-78
2022/11/17 01:43:43;;;;;;;6.50;2.03;;;;;;;10.09;100.00;98390.63;4980297;28;20240;-79
2022/11/17 01:46:27;;;;;;;3.13;1.80;;;;;;;10.09;100.00;98385.16;4995633;28;20054;-79
2022/11/17 01:49:01;;;;;;;4.82;1.40;;;;;;;9.95;100.00;98375.00;4993554;28;20037;-78
2022/11/17 01:51:30;;;;;;;5.13;1.70;;;;;;;9.97;100.00;98377.53;5002864;28;20030;-78
2022/11/17 01:53:56;;;;;;;3.40;1.10;;;;;;;10.06;100.00;98371.84;5021415;28;20084;-78
2022/11/17 01:56:27;;;;;;;4.15;1.02;;;;;;;9.98;100.00;98368.31;5006476;28;20486;-79
2022/11/17 01:59:07;;;;;;;5.88;1.63;;;;;;;9.99;100.00;98356.38;4978643;28;20531;-79
2022/11/17 02:01:33;;;;;;;3.40;0.85;;;;;;;10.01;100.00;98360.59;5007411;28;20085;-79
2022/11/17 02:03:59;;;;;;;4.88;1.35;;;;;;;10.09;100.00;98357.81;4980836;28;20628;-79
2022/11/17 02:06:35;;;;;;;3.00;0.85;;;;;;;10.23;100.00;98371.75;4975176;28;20445;-78
2022/11/17 02:09:02;;;;;;;3.00;0.90;;;;;;;10.20;100.00;98364.78;4993725;28;20042;-79
2022/11/17 02:11:34;;;;;;;2.40;1.15;;;;;;;10.12;100.00;98351.16;4980773;28;20036;-78
2022/11/17 02:14:01;;;;;;;2.77;0.90;;;;;;;10.09;100.00;98368.75;4983619;28;20092;-78
2022/11/17 02:16:27;;;;;;;3.42;0.80;;;;;;;10.02;100.00;98355.97;5019423;28;20292;-79
2022/11/17 02:18:52;;;;;;;3.53;0.70;;;;;;;10.03;100.00;98341.28;4976506;28;20483;-79
2022/11/17 02:21:39;;;;;;;5.47;0.90;;;;;;;10.01;100.00;98346.09;5005070;28;20057;-79
2022/11/17 02:24:32;;;;;;;5.25;0.80;;;;;;;10.01;100.00;98341.47;4991940;28;20034;-78
2022/11/17 02:27:31;;;;;;;2.65;0.65;;;;;;;9.97;100.00;98336.53;4977272;28;20045;-79
2022/11/17 02:30:04;;;;;;;5.68;0.90;;;;;;;9.96;100.00;98330.22;4993038;28;20037;-79
2022/11/17 02:33:11;;;;;;;0.65;0.50;;;;;;;10.01;100.00;98333.28;4992508;28;20126;-80
2022/11/17 02:35:51;;;;;;;0.80;0.60;;;;;;;9.99;100.00;98338.06;4987070;28;20030;-79
2022/11/17 02:38:33;;;;;;;2.47;0.70;;;;;;;10.04;100.00;98337.53;4997995;28;20061;-79
2022/11/17 02:41:22;;;;;;;0.70;0.70;;;;;;;9.98;100.00;98327.31;4996364;28;20129;-79
2022/11/17 02:44:03;;;;;;;1.60;0.50;;;;;;;10.00;100.00;98325.25;4991966;28;20430;-78
2022/11/17 02:46:44;;;;;;;0.63;0.60;;;;;;;10.05;100.00;98317.34;4996542;28;20090;-79
2022/11/17 02:49:19;;;;;;;3.95;0.70;;;;;;;10.02;100.00;98313.13;4982972;28;20137;-80
2022/11/17 02:51:49;;;;;;;1.73;0.47;;;;;;;10.09;100.00;98325.00;4993896;28;20082;-79
2022/11/17 02:54:16;;;;;;;2.92;1.00;;;;;;;10.06;100.00;98306.25;4986327;28;20030;-80
2022/11/17 02:56:42;;;;;;;1.60;0.80;;;;;;;10.10;100.00;98320.38;5009857;28;20041;-79
2022/11/17 02:59:08;;;;;;;1.33;0.60;;;;;;;10.09;100.00;98318.72;4996037;28;20034;-79
2022/11/17 03:01:45;;;;;;;1.67;0.50;;;;;;;10.19;100.00;98321.22;4997628;28;20065;-79
2022/11/17 03:04:38;;;;;;;2.05;0.50;;;;;;;10.16;100.00;98313.34;4998840;28;20065;-80
2022/11/17 03:07:23;;;;;;;4.72;0.70;;;;;;;10.15;100.00;98311.66;4990181;28;20053;-78
2022/11/17 03:09:53;;;;;;;3.30;0.60;;;;;;;10.16;100.00;98292.31;4990089;28;20042;-78
2022/11/17 03:12:38;;;;;;;2.75;0.55;;;;;;;10.17;100.00;98285.84;4998286;28;20140;-78
2022/11/17 03:15:20;;;;;;;0.57;0.40;;;;;;;10.10;100.00;98273.91;4975255;28;20034;-78
2022/11/17 03:17:48;;;;;;;4.95;0.80;;;;;;;10.07;100.00;98271.56;4998056;28;20045;-78
2022/11/17 03:20:33;;;;;;;1.67;0.50;;;;;;;10.11;100.00;98265.53;5003681;28;20050;-80
2022/11/17 03:23:13;;;;;;;1.45;0.40;;;;;;;10.07;100.00;98266.94;4977756;28;20561;-78
2022/11/17 03:25:43;;;;;;;2.00;0.40;;;;;;;10.08;100.00;98251.38;4984454;28;20057;-79
2022/11/17 03:28:11;;;;;;;1.13;0.50;;;;;;;10.06;100.00;98248.81;5014588;28;20035;-79
2022/11/17 03:30:41;;;;;;;2.20;0.40;;;;;;;10.09;100.00;98232.06;5013373;28;20383;-79
2022/11/17 03:33:14;;;;;;;3.97;0.60;;;;;;;10.07;100.00;98246.97;5004371;28;20508;-78
2022/11/17 03:35:46;;;;;;;0.50;0.50;;;;;;;10.12;100.00;98253.56;5008419;28;20026;-79
2022/11/17 03:38:15;;;;;;;0.75;0.50;;;;;;;10.09;100.00;98256.66;5011318;28;20041;-78
2022/11/17 03:40:45;;;;;;;1.27;0.50;;;;;;;10.17;100.00;98261.22;4997243;28;20370;-78
2022/11/17 03:43:14;;;;;;;1.17;0.60;;;;;;;10.19;100.00;98237.28;5008218;28;20065;-78
2022/11/17 03:45:45;;;;;;;0.50;0.50;;;;;;;10.30;100.00;98249.69;5009309;28;20085;-79
2022/11/17 03:48:23;;;;;;;1.23;0.70;;;;;;;10.24;100.00;98250.41;4992322;28;20062;-79
2022/11/17 03:51:05;;;;;;;2.38;0.60;;;;;;;10.16;100.00;98250.47;5005087;28;20054;-79
2022/11/17 03:53:32;;;;;;;1.77;1.02;;;;;;;10.13;100.00;98227.06;5005952;28;20068;-79
2022/11/17 03:56:17;;;;;;;5.82;1.00;;;;;;;10.02;100.00;98231.09;4995170;28;20038;-79
2022/11/17 03:58:53;;;;;;;0.88;0.70;;;;;;;10.00;100.00;98224.97;4994771;28;20042;-80
2022/11/17 04:01:20;;;;;;;1.50;0.60;;;;;;;9.91;100.00;98223.34;4995420;28;20030;-79
2022/11/17 04:03:47;;;;;;;2.42;0.70;;;;;;;9.91;100.00;98231.53;5028748;28;20088;-80
2022/11/17 04:06:12;;;;;;;0.80;0.60;;;;;;;9.91;100.00;98221.44;5008332;28;20031;-79
2022/11/17 04:08:38;;;;;;;1.23;0.60;;;;;;;9.88;100.00;98223.69;4971288;28;20503;-78
2022/11/17 04:16:31;;;;;;;2.38;0.50;;;;;;;10.14;100.00;98204.19;4996726;28;20034;-80
2022/11/17 04:18:57;;;;;;;5.60;0.50;;;;;;;10.07;100.00;98206.78;4994633;28;20104;-79
2022/11/17 04:21:22;;;;;;;3.33;0.52;;;;;;;10.16;100.00;98191.16;4975752;28;20097;-80
2022/11/17 04:23:48;;;;;;;4.78;0.60;;;;;;;10.15;100.00;98197.69;4991638;28;20098;-80
2022/11/17 04:28:57;;;;;;;1.40;0.60;;;;;;;10.09;100.00;98187.47;4997361;28;20470;-80
2022/11/17 04:31:28;;;;;;;0.50;0.40;;;;;;;10.06;100.00;98182.38;4973454;28;20121;-80
2022/11/17 04:33:56;;;;;;;3.10;0.47;;;;;;;10.06;100.00;98185.09;4995409;28;20093;-80
2022/11/17 04:36:24;;;;;;;0.73;0.40;;;;;;;10.19;100.00;98184.47;4995042;28;20040;-80
2022/11/17 04:38:52;;;;;;;2.15;0.63;;;;;;;10.16;100.00;98193.06;5009442;28;20487;-79
2022/11/17 04:44:05;;;;;;;1.27;0.50;;;;;;;10.04;100.00;98179.81;4994533;28;20038;-79
2022/11/17 04:46:32;;;;;;;0.95;0.40;;;;;;;10.06;100.00;98172.28;4994783;28;20039;-80
2022/11/17 04:48:58;;;;;;;1.10;0.63;;;;;;;10.07;100.00;98168.53;4992311;28;20487;-79
2022/11/17 04:51:25;;;;;;;1.73;1.05;;;;;;;10.00;100.00;98162.09;4991103;28;20093;-79
2022/11/17 04:53:51;;;;;;;1.50;0.40;;;;;;;9.98;100.00;98164.16;4963235;28;20065;-79
2022/11/17 04:56:21;;;;;;;1.92;0.50;;;;;;;10.06;100.00;98169.53;4998293;28;20026;-78
2022/11/17 04:58:47;;;;;;;4.68;1.00;;;;;;;10.04;100.00;98155.22;4975941;28;20038;-79
2022/11/17 05:01:13;;;;;;;8.40;0.65;;;;;;;9.98;100.00;98155.94;4991768;28;20154;-79
2022/11/17 05:03:53;;;;;;;6.38;0.75;;;;;;;10.08;100.00;98155.69;4976625;28;20140;-79
2022/11/17 05:06:34;;;;;;;5.45;0.93;;;;;;;10.00;100.00;98162.09;5004884;28;20097;-78
2022/11/17 05:09:02;;;;;;;2.53;0.73;;;;;;;10.06;100.00;98164.06;5024653;28;20132;-78
2022/11/17 05:14:16;;;;;;;4.53;0.90;;;;;;;10.15;100.00;98155.81;5007919;28;20038;-78
2022/11/17 05:19:28;;;;;;;8.40;0.80;;;;;;;10.30;100.00;98143.00;5015668;28;20379;-78
2022/11/17 05:21:54;;;;;;;7.40;0.90;;;;;;;10.17;100.00;98154.59;5015729;28;20052;-78
2022/11/17 05:24:20;;;;;;;6.70;1.08;;;;;;;10.29;100.00;98157.72;5015976;28;20038;-79
2022/11/17 05:26:47;;;;;;;1.40;0.70;;;;;;;10.14;100.00;98163.16;4998033;28;20446;-79
2022/11/17 05:29:15;;;;;;;10.90;1.05;;;;;;;10.25;100.00;98168.19;4999248;28;20474;-78
2022/11/17 05:31:40;;;;;;;6.22;1.17;;;;;;;10.34;100.00;98179.06;5011591;28;20095;-78
2022/11/17 05:34:11;;;;;;;11.13;1.58;;;;;;;10.44;100.00;98171.44;4995128;28;20038;-79
2022/11/17 05:36:37;;;;;;;10.95;1.10;;;;;;;10.49;100.00;98168.97;5006526;28;20108;-76
2022/11/17 05:39:04;;;;;;;12.77;1.40;;;;;;;10.52;100.00;98189.66;5012639;28;20478;-75
2022/11/17 05:41:29;;;;;;;7.65;0.95;;;;;;;10.51;100.00;98185.22;4992653;28;20038;-76
2022/11/17 05:43:55;;;;;;;6.03;1.00;;;;;;;10.54;100.00;98198.53;5023761;28;20041;-77
2022/11/17 05:46:21;;;;;;;7.85;1.17;;;;;;;10.58;100.00;98208.06;4977299;28;20041;-77
2022/11/17 05:48:51;;;;;;;7.40;1.00;;;;;;;10.44;100.00;98199.63;5012851;28;20470;-77
2022/11/17 05:51:19;;;;;;;9.25;1.00;;;;;;;10.42;100.00;98209.06;5010099;28;20061;-77
2022/11/17 05:53:45;;;;;;;4.65;1.05;;;;;;;10.48;100.00;98206.44;5009049;28;20045;-81
2022/11/17 05:56:28;;;;;;;6.57;1.10;;;;;;;10.54;100.00;98202.09;4997540;28;20066;-78
2022/11/17 05:58:57;;;;;;;;;;;;;;;10.45;100.00;98201.34;5006126;28;20102;-78
2022/11/17 06:01:22;;;;;;;10.00;1.90;;;;;;;10.36;100.00;98201.59;5012618;28;19922;-78
2022/11/17 06:03:52;;;;;;;10.07;1.40;;;;;;;10.37;100.00;98206.91;4998812;28;20029;-79
2022/11/17 06:06:19;;;;;;;9.30;1.10;;;;;;;10.44;100.00;98210.56;5010870;28;20030;-78
2022/11/17 06:08:44;;;;;;;14.18;1.80;;;;;;;10.42;100.00;98209.91;5007396;28;20550;-79
2022/11/17 06:11:11;;;;;;;10.85;1.52;;;;;;;10.42;100.00;98214.56;4992111;28;20129;-78
2022/11/17 06:13:37;;;;;;;8.35;1.42;;;;;;;10.47;100.00;98212.94;5009417;28;20128;-78
2022/11/17 06:16:08;;;;;;;13.40;1.10;;;;;;;10.45;100.00;98212.28;5014582;28;20113;-79
2022/11/17 06:18:38;;;;;;;10.68;1.02;;;;;;;10.36;100.00;98218.84;5011427;28;20091;-79
2022/11/17 06:21:06;;;;;;;7.03;1.00;;;;;;;10.37;100.00;98223.31;5029764;28;20128;-79
2022/11/17 06:23:33;;;;;;;10.77;0.93;;;;;;;10.37;100.00;98206.91;4997467;28;20033;-78
2022/11/17 06:26:02;;;;;;;10.13;1.35;;;;;;;10.41;100.00;98213.72;5006568;28;20045;-79
2022/11/17 06:28:30;;;;;;;8.20;1.00;;;;;;;10.35;100.00;98225.38;4998366;28;20034;-79
2022/11/17 06:30:58;;;;;;;13.18;1.60;;;;;;;10.28;100.00;98214.31;5010063;28;20037;-80
2022/11/17 06:33:25;;;;;;;10.55;1.02;;;;;;;10.32;100.00;98219.41;4987634;28;20042;-79
2022/11/17 06:35:51;;;;;;;10.15;1.10;;;;;;;10.35;100.00;98230.84;4988788;28;20471;-79
2022/11/17 06:38:17;;;;;;;4.00;0.90;;;;;;;10.37;100.00;98242.44;4994433;28;20113;-77
2022/11/17 06:40:42;;;;;;;9.60;0.90;;;;;;;10.34;100.00;98244.72;4997455;28;20073;-77
2022/11/17 06:43:08;;;;;;;4.95;0.80;;;;;;;10.27;100.00;98242.69;5015355;28;20037;-76
2022/11/17 06:45:46;;;;;;;4.95;1.23;;;;;;;10.25;100.00;98228.34;5000071;28;20109;-76
2022/11/17 06:48:15;;;;;;;6.88;1.42;;;;;;;10.25;100.00;98246.66;5011732;28;20049;-77
2022/11/17 06:50:42;;;;;;;8.73;1.02;;;;;;;10.16;100.00;98254.03;4995327;28;20026;-76
2022/11/17 06:53:09;;;;;;;9.65;0.88;;;;;;;10.14;100.00;98258.84;4997080;28;20058;-77
2022/11/17 06:55:35;;;;;;;13.88;1.38;;;;;;;10.17;100.00;98261.22;5029419;28;20490;-79
2022/11/17 06:58:07;;;;;;;6.75;1.17;;;;;;;10.14;100.00;98266.22;4998053;28;20045;-77
2022/11/17 07:00:34;;;;;;;6.82;1.00;;;;;;;10.19;100.00;98274.72;5015372;28;20038;-77
2022/11/17 07:03:04;;;;;;;8.05;1.02;;;;;;;10.15;100.00;98259.69;5010246;28;20401;-77
2022/11/17 07:05:31;;;;;;;13.13;1.13;;;;;;;10.16;100.00;98275.09;5012895;28;20124;-77
2022/11/17 07:07:58;;;;;;;10.45;1.45;;;;;;;10.17;100.00;98274.91;5026928;28;20116;-77
2022/11/17 07:10:24;;;;;;;7.88;1.02;;;;;;;10.22;100.00;98275.19;5012590;28;20053;-77
2022/11/17 07:12:50;;;;;;;12.20;0.80;;;;;;;10.19;100.00;98281.03;4996866;28;20033;-77
2022/11/17 07:15:15;;;;;;;13.98;1.45;;;;;;;10.16;100.00;98283.28;5013425;28;20046;-78
2022/11/17 07:17:41;;;;;;;6.95;0.80;;;;;;;10.18;100.00;98283.94;5011437;28;20030;-78
2022/11/17 07:20:07;;;;;;;10.52;1.30;;;;;;;10.18;100.00;98283.94;5013453;28;20579;-77
2022/11/17 07:22:32;;;;;;;5.50;0.70;;;;;;;10.14;100.00;98288.09;5026532;28;20418;-76
2022/11/17 07:24:58;;;;;;;8.45;0.80;;;;;;;10.15;100.00;98300.72;5010871;28;20124;-77
2022/11/17 07:27:23;;;;;;;3.85;0.60;;;;;;;10.09;100.00;98296.84;5010100;28;20042;-76
2022/11/17 07:29:49;;;;;;;5.70;0.70;;;;;;;10.09;100.00;98303.16;5011735;28;20061;-76
2022/11/17 07:32:14;;;;;;;8.60;1.55;;;;;;;10.07;100.00;98299.75;4993567;28;20081;-77
2022/11/17 07:34:41;;;;;;;7.45;1.05;;;;;;;10.05;100.00;98290.00;5026980;28;20038;-76
2022/11/17 07:37:06;;;;;;;11.82;0.85;;;;;;;9.99;100.00;98301.69;5022940;28;20037;-77
2022/11/17 07:39:32;;;;;;;5.40;0.98;;;;;;;9.98;100.00;98305.44;5010418;28;20060;-77
2022/11/17 07:41:57;;;;;;;7.22;1.00;;;;;;;9.92;100.00;98304.31;5009758;28;20061;-77
2022/11/17 07:44:23;;;;;;;7.53;0.85;;;;;;;9.93;100.00;98316.91;4998134;28;20494;-77
2022/11/17 07:46:48;;;;;;;9.77;0.98;;;;;;;9.92;100.00;98326.19;4994778;28;20044;-76
2022/11/17 07:49:14;;;;;;;10.68;0.93;;;;;;;9.92;100.00;98328.91;5027976;28;20044;-76
2022/11/17 07:51:39;;;;;;;3.40;0.60;;;;;;;9.88;100.00;98339.31;5030604;28;20068;-78
2022/11/17 07:54:05;;;;;;;4.13;0.43;;;;;;;9.86;100.00;98330.47;4997718;28;20089;-77
2022/11/17 07:56:30;;;;;;;5.45;0.55;;;;;;;9.91;100.00;98347.16;5004786;28;20054;-78
2022/11/17 07:58:55;;;;;;;4.47;0.70;;;;;;;9.91;100.00;98347.16;5011702;28;20034;-77
2022/11/17 08:01:21;;;;;;;4.75;0.55;;;;;;;9.89;100.00;98345.66;4994992;28;20038;-77
2022/11/17 08:03:46;;;;;;;7.70;0.47;;;;;;;9.85;100.00;98344.31;4999420;28;20038;-77
2022/11/17 08:06:12;;;;;;;4.65;0.50;;;;;;;9.91;100.00;98352.63;5011747;28;20509;-77
2022/11/17 08:08:38;;;;;;;3.05;0.40;;;;;;;9.89;100.00;98351.13;4996290;28;20046;-78
2022/11/17 08:11:06;;;;;;;4.75;0.52;;;;;;;9.82;100.00;98361.94;4995633;28;20142;-77
2022/11/17 08:13:32;;;;;;;6.30;1.13;;;;;;;9.86;100.00;98362.41;5001173;28;20135;-77
2022/11/17 08:15:58;;;;;;;7.38;0.98;;;;;;;9.84;100.00;98362.59;5027550;28;20428;-76
2022/11/17 08:18:24;;;;;;;2.67;0.60;;;;;;;9.79;100.00;98361.41;4991997;28;20073;-77
2022/11/17 08:20:49;;;;;;;2.00;0.40;;;;;;;9.86;100.00;98363.25;5029191;28;20133;-77
2022/11/17 08:23:14;;;;;;;5.25;0.70;;;;;;;9.81;100.00;98367.56;4999160;28;20089;-77
2022/11/17 08:25:40;;;;;;;1.50;0.57;;;;;;;9.89;100.00;98378.47;4996766;28;20042;-77
2022/11/17 08:28:05;;;;;;;6.53;1.30;;;;;;;9.81;100.00;98371.16;5016483;28;20039;-77
2022/11/17 08:30:33;;;;;;;1.77;0.63;;;;;;;9.89;100.00;98378.47;4998901;28;20041;-78
2022/11/17 08:32:59;;;;;;;2.20;0.70;;;;;;;9.85;100.00;98388.88;4997825;28;20120;-77
2022/11/17 08:35:25;;;;;;;2.67;0.95;;;;;;;9.81;100.00;98373.03;4999639;28;20030;-77
2022/11/17 08:37:51;;;;;;;3.97;0.70;;;;;;;9.82;100.00;98380.19;5028295;28;20117;-78
2022/11/17 08:40:17;;;;;;;3.78;0.70;;;;;;;9.83;100.00;98380.00;5014031;28;20030;-78
2022/11/17 08:42:43;;;;;;;5.35;0.73;;;;;;;9.82;100.00;98388.38;4981045;28;20129;-78
2022/11/17 08:45:09;;;;;;;2.45;0.75;;;;;;;9.78;100.00;98381.59;5031081;28;20076;-77
2022/11/17 08:47:35;;;;;;;3.45;0.63;;;;;;;9.75;100.00;98388.25;4997031;28;20100;-78
2022/11/17 08:50:01;;;;;;;3.08;0.70;;;;;;;9.71;100.00;98386.91;4994667;28;20371;-77
2022/11/17 08:52:27;;;;;;;4.88;0.60;;;;;;;9.63;100.00;98385.06;5011474;28;20114;-77
2022/11/17 08:54:53;;;;;;;4.28;0.70;;;;;;;9.66;100.00;98389.31;4996197;28;20371;-78
2022/11/17 08:57:20;;;;;;;1.95;0.60;;;;;;;9.63;100.00;98381.47;4995657;28;20037;-77
2022/11/17 08:59:46;;;;;;;3.17;1.00;;;;;;;9.71;100.00;98385.03;5011688;28;20395;-77
2022/11/17 09:02:13;;;;;;;13.52;0.90;;;;;;;9.72;100.00;98385.88;4997088;28;20034;-77
2022/11/17 09:04:39;;;;;;;3.00;0.50;;;;;;;9.74;100.00;98392.88;4997521;28;20498;-77
2022/11/17 09:07:05;;;;;;;3.75;0.50;;;;;;;9.82;100.00;98391.13;4980691;28;20026;-77
2022/11/17 09:09:31;;;;;;;2.95;0.60;;;;;;;9.83;100.00;98401.03;5032620;28;20088;-77
2022/11/17 09:11:58;;;;;;;4.38;0.63;;;;;;;9.79;100.00;98396.94;5020816;28;20037;-78
2022/11/17 09:14:24;;;;;;;1.35;0.50;;;;;;;9.82;100.00;98404.78;5038329;28;20025;-78
2022/11/17 09:16:50;;;;;;;3.50;0.50;;;;;;;9.74;100.00;98395.59;5020279;28;20038;-77
2022/11/17 09:19:16;;;;;;;2.05;0.50;;;;;;;9.73;100.00;98403.97;5019868;28;20378;-78
2022/11/17 09:21:41;;;;;;;4.95;0.63;;;;;;;9.76;100.00;98420.00;5020734;28;20596;-78
2022/11/17 09:24:07;;;;;;;5.75;0.82;;;;;;;9.78;100.00;98415.22;5020456;28;20045;-79
2022/11/17 09:26:32;;;;;;;2.50;0.40;;;;;;;9.63;100.00;98417.00;5020693;28;20025;-78
2022/11/17 09:29:02;;;;;;;8.07;0.70;;;;;;;9.70;100.00;98417.97;5004207;28;20029;-78
2022/11/17 09:31:28;;;;;;;6.38;0.68;;;;;;;9.82;100.00;98421.19;5004908;28;20109;-78
2022/11/17 09:33:54;;;;;;;6.50;0.63;;;;;;;9.77;100.00;98432.63;5004399;28;20060;-78
2022/11/17 09:36:20;;;;;;;4.22;0.50;;;;;;;9.85;100.00;98423.56;5037897;28;20342;-79
2022/11/17 09:38:46;;;;;;;6.95;0.85;;;;;;;9.88;100.00;98434.97;5001957;28;20038;-78
2022/11/17 09:41:15;;;;;;;8.75;0.57;;;;;;;9.96;100.00;98439.56;5036641;28;20044;-78
2022/11/17 09:44:05;;;;;;;1.95;0.40;;;;;;;10.04;100.00;98449.63;5023546;28;20488;-78
2022/11/17 09:46:41;;;;;;;1.38;0.43;;;;;;;10.05;100.00;98454.03;5037177;28;20032;-77
2022/11/17 09:49:10;;;;;;;1.25;0.50;;;;;;;10.12;100.00;98452.31;5036565;28;20037;-78
2022/11/17 09:51:39;;;;;;;4.03;0.82;;;;;;;10.19;100.00;98460.66;5017329;28;20512;-78
2022/11/17 09:54:25;;;;;;;1.83;0.90;;;;;;;10.23;100.00;98456.53;4984652;28;20060;-78
2022/11/17 09:56:55;;;;;;;4.75;1.10;;;;;;;10.28;100.00;98465.03;4984383;28;20440;-78
2022/11/17 09:59:26;;;;;;;2.22;0.43;;;;;;;10.35;100.00;98471.53;5018666;28;20034;-78
2022/11/17 10:01:51;;;;;;;3.65;0.60;;;;;;;10.39;100.00;98461.94;5054750;28;20028;-78
2022/11/17 10:04:17;;;;;;;3.25;0.50;;;;;;;10.52;100.00;98471.47;5023593;28;20443;-79
2022/11/17 10:06:45;;;;;;;1.95;0.43;;;;;;;10.58;100.00;98482.53;5039867;28;20041;-78
2022/11/17 10:09:17;;;;;;;4.00;0.50;;;;;;;10.61;100.00;98481.31;5022794;28;20049;-79
2022/11/17 10:11:43;;;;;;;4.07;0.50;;;;;;;10.74;100.00;98484.31;5021879;28;20034;-78
2022/11/17 10:14:13;;;;;;;1.52;0.40;;;;;;;10.82;100.00;98489.72;5036367;28;20172;-78
2022/11/17 10:16:53;;;;;;;5.03;0.63;;;;;;;10.85;100.00;98494.84;5036181;28;20083;-79
2022/11/17 10:19:22;;;;;;;3.28;0.80;;;;;;;10.85;100.00;98489.38;5018902;28;20393;-78
2022/11/17 10:22:02;;;;;;;5.97;0.55;;;;;;;10.94;100.00;98489.31;5036453;28;20041;-79
2022/11/17 10:24:57;;;;;;;4.63;0.68;;;;;;;10.89;100.00;98498.06;5019562;28;20029;-80
2022/11/17 10:27:31;;;;;;;4.28;0.40;;;;;;;10.79;100.00;98503.78;5014914;28;20388;-78
2022/11/17 10:30:03;;;;;;;1.80;0.40;;;;;;;10.69;100.00;98508.66;5019312;28;20038;-77
2022/11/17 10:32:31;;;;;;;2.72;0.40;;;;;;;10.74;100.00;98511.69;5018060;28;20033;-78
2022/11/17 10:35:13;;;;;;;4.95;0.50;;;;;;;10.73;100.00;98520.91;5035101;28;20036;-78
2022/11/17 10:37:50;;;;;;;6.73;0.50;;;;;;;10.76;100.00;98515.09;5018623;28;20029;-79
2022/11/17 10:40:21;;;;;;;5.60;0.50;;;;;;;10.76;100.00;98515.09;5019350;28;20381;-78
2022/11/17 10:43:13;;;;;;;3.17;0.47;;;;;;;10.79;100.00;98511.13;5018014;28;20041;-79
2022/11/17 10:46:15;;;;;;;1.30;0.55;;;;;;;10.80;100.00;98530.09;5019327;28;20037;-80
2022/11/17 10:48:55;;;;;;;3.03;0.55;;;;;;;10.79;100.00;98522.94;4976021;28;20074;-79
2022/11/17 10:51:23;;;;;;;0.95;0.30;;;;;;;10.83;100.00;98517.94;5013304;28;20570;-79
2022/11/17 10:54:13;;;;;;;0.25;0.20;;;;;;;10.88;100.00;98520.16;5037584;28;20026;-79
2022/11/17 10:56:45;;;;;;;5.50;0.95;;;;;;;10.96;100.00;98517.34;5002749;28;20037;-79
2022/11/17 10:59:15;;;;;;;6.80;0.57;;;;;;;10.96;100.00;98517.34;5002835;28;20546;-78
2022/11/17 11:01:48;;;;;;;2.90;0.90;;;;;;;11.00;100.00;98526.88;5037027;28;20107;-80
2022/11/17 11:04:32;;;;;;;8.38;0.60;;;;;;;11.03;100.00;98529.28;5036817;28;20037;-80
2022/11/17 11:07:18;;;;;;;4.40;0.57;;;;;;;11.02;100.00;98533.06;5037121;28;20026;-79
2022/11/17 11:10:12;;;;;;;3.13;0.60;;;;;;;11.04;100.00;98534.56;5002260;28;20041;-79
2022/11/17 11:13:00;;;;;;;3.05;0.57;;;;;;;10.99;100.00;98536.16;5005711;28;20033;-79
2022/11/17 11:15:32;;;;;;;1.13;0.28;;;;;;;10.94;100.00;98533.13;5019329;28;20029;-79
2022/11/17 11:17:57;;;;;;;2.07;0.43;;;;;;;10.88;100.00;98537.41;5001994;28;20029;-79
2022/11/17 11:20:34;;;;;;;1.63;0.40;;;;;;;10.82;100.00;98544.47;5018459;28;20799;-79
2022/11/17 11:23:37;;;;;;;3.10;0.60;;;;;;;10.94;100.00;98539.44;5018056;28;20033;-79
2022/11/17 11:26:26;;;;;;;3.00;0.40;;;;;;;10.99;100.00;98549.84;5019195;28;20037;-78
2022/11/17 11:29:34;;;;;;;2.08;0.40;;;;;;;11.02;100.00;98544.84;5018856;28;20493;-79
2022/11/17 11:32:27;;;;;;;2.70;0.45;;;;;;;11.09;100.00;98547.72;4980895;28;20128;-78
2022/11/17 11:34:52;;;;;;;2.03;0.70;;;;;;;11.11;100.00;98559.34;5017824;28;20061;-78
2022/11/17 11:37:18;;;;;;;1.45;0.43;;;;;;;11.17;100.00;98560.50;5015547;28;20494;-79
2022/11/17 11:39:52;;;;;;;2.05;0.57;;;;;;;11.19;100.00;98561.16;5015162;28;20505;-79
2022/11/17 11:42:33;;;;;;;1.77;0.40;;;;;;;11.22;100.00;98561.66;4999274;28;20124;-79
2022/11/17 11:45:15;;;;;;;4.95;0.50;;;;;;;11.24;100.00;98569.69;5017403;28;20033;-81
2022/11/17 11:47:53;;;;;;;2.53;0.63;;;;;;;11.26;100.00;98562.13;5018726;28;20045;-79
2022/11/17 11:50:25;;;;;;;3.75;0.40;;;;;;;11.20;100.00;98566.47;5020897;28;20367;-80
2022/11/17 11:52:57;;;;;;;1.95;0.50;;;;;;;11.23;100.00;98576.19;5006494;28;20485;-79
2022/11/17 11:55:29;;;;;;;4.78;0.40;;;;;;;11.20;100.00;98580.16;5006030;28;20033;-79
2022/11/17 11:58:21;;;;;;;4.43;0.55;;;;;;;11.23;100.00;98587.16;5011014;28;20049;-79
2022/11/17 12:01:05;;;;;;;4.80;0.77;;;;;;;11.14;100.00;98580.03;5019686;28;20030;-79
2022/11/17 12:03:41;;;;;;;1.38;0.50;;;;;;;11.13;100.00;98581.91;5022552;28;20041;-79
2022/11/17 12:09:25;;;;;;;3.60;0.40;;;;;;;11.24;100.00;98588.88;5038918;28;20076;-79
2022/11/17 12:12:01;;;;;;;2.72;0.50;;;;;;;11.23;100.00;98584.41;5022433;28;20129;-79